sensor_id;sensor_type;location;lat;lon;timestamp;temperature;humidity
26583;DHT22;14230;45.382;10.998;2022-09-09T00:01:51;21.70;99.90
26583;DHT22;14230;45.382;10.998;2022-09-09T00:15:27;21.60;99.90
26583;DHT22;14230;45.382;10.998;2022-09-09T00:18:11;21.70;99.90
26583;DHT22;14230;45.382;10.998;2022-09-09T00:20:47;21.70;99.90
26583;DHT22;14230;45.382;10.998;2022-09-09T00:23:31;21.80;99.90
26583;DHT22;14230;45.382;10.998;2022-09-09T00:26:18;21.80;99.90
26583;DHT22;14230;45.382;10.998;2022-09-09T00:31:35;21.70;99.90
26583;DHT22;14230;45.382;10.998;2022-09-09T00:34:20;21.60;99.90
26583;DHT22;14230;45.382;10.998;2022-09-09T00:36:52;21.60;99.90
26583;DHT22;14230;45.382;10.998;2022-09-09T00:39:36;21.50;99.90
26583;DHT22;14230;45.382;10.998;2022-09-09T00:42:23;21.50;99.90
26583;DHT22;14230;45.382;10.998;2022-09-09T00:44:55;21.60;99.90
26583;DHT22;14230;45.382;10.998;2022-09-09T00:47:39;21.60;99.90
26583;DHT22;14230;45.382;10.998;2022-09-09T00:55:48;21.60;99.90
26583;DHT22;14230;45.382;10.998;2022-09-09T00:58:19;21.60;99.90
26583;DHT22;14230;45.382;10.998;2022-09-09T01:00:50;21.60;99.90
26583;DHT22;14230;45.382;10.998;2022-09-09T01:03:54;21.60;99.90
26583;DHT22;14230;45.382;10.998;2022-09-09T01:06:31;21.60;99.90
26583;DHT22;14230;45.382;10.998;2022-09-09T01:09:18;21.50;99.90
26583;DHT22;14230;45.382;10.998;2022-09-09T01:28:47;21.20;99.90
26583;DHT22;14230;45.382;10.998;2022-09-09T01:31:21;21.20;99.90
26583;DHT22;14230;45.382;10.998;2022-09-09T01:33:51;21.20;99.90
26583;DHT22;14230;45.382;10.998;2022-09-09T01:36:37;21.10;99.90
26583;DHT22;14230;45.382;10.998;2022-09-09T01:39:06;21.10;99.90
26583;DHT22;14230;45.382;10.998;2022-09-09T01:41:34;21.10;99.90
26583;DHT22;14230;45.382;10.998;2022-09-09T01:44:08;21.00;99.90
26583;DHT22;14230;45.382;10.998;2022-09-09T01:46:38;21.00;99.90
26583;DHT22;14230;45.382;10.998;2022-09-09T01:49:11;20.90;99.90
26583;DHT22;14230;45.382;10.998;2022-09-09T01:51:39;20.90;99.90
26583;DHT22;14230;45.382;10.998;2022-09-09T01:54:11;20.90;99.90
26583;DHT22;14230;45.382;10.998;2022-09-09T02:04:44;20.90;99.90
26583;DHT22;14230;45.382;10.998;2022-09-09T02:13:17;20.80;99.90
26583;DHT22;14230;45.382;10.998;2022-09-09T02:16:08;20.80;99.90
26583;DHT22;14230;45.382;10.998;2022-09-09T02:21:26;20.80;99.90
26583;DHT22;14230;45.382;10.998;2022-09-09T02:23:58;20.80;99.90
26583;DHT22;14230;45.382;10.998;2022-09-09T02:26:28;20.70;99.90
26583;DHT22;14230;45.382;10.998;2022-09-09T02:29:03;20.70;99.90
26583;DHT22;14230;45.382;10.998;2022-09-09T02:31:33;20.70;99.90
26583;DHT22;14230;45.382;10.998;2022-09-09T02:34:07;20.70;99.90
26583;DHT22;14230;45.382;10.998;2022-09-09T02:36:40;20.70;99.90
26583;DHT22;14230;45.382;10.998;2022-09-09T02:39:10;20.80;99.90
26583;DHT22;14230;45.382;10.998;2022-09-09T02:41:39;20.80;99.90
26583;DHT22;14230;45.382;10.998;2022-09-09T02:44:15;20.80;99.90
26583;DHT22;14230;45.382;10.998;2022-09-09T02:50:20;20.80;99.90
26583;DHT22;14230;45.382;10.998;2022-09-09T02:55:55;20.90;99.90
26583;DHT22;14230;45.382;10.998;2022-09-09T02:58:26;20.80;99.90
26583;DHT22;14230;45.382;10.998;2022-09-09T03:00:58;20.80;99.90
26583;DHT22;14230;45.382;10.998;2022-09-09T03:03:29;20.80;99.90
26583;DHT22;14230;45.382;10.998;2022-09-09T03:05:59;20.80;99.90
26583;DHT22;14230;45.382;10.998;2022-09-09T03:08:27;20.70;99.90
26583;DHT22;14230;45.382;10.998;2022-09-09T03:10:59;20.70;99.90
26583;DHT22;14230;45.382;10.998;2022-09-09T03:13:30;20.70;99.90
26583;DHT22;14230;45.382;10.998;2022-09-09T03:15:58;20.80;99.90
26583;DHT22;14230;45.382;10.998;2022-09-09T03:18:28;20.70;99.90
26583;DHT22;14230;45.382;10.998;2022-09-09T03:20:57;20.70;99.90
26583;DHT22;14230;45.382;10.998;2022-09-09T03:23:25;20.70;99.90
26583;DHT22;14230;45.382;10.998;2022-09-09T03:25:52;20.70;99.90
26583;DHT22;14230;45.382;10.998;2022-09-09T03:28:30;20.70;99.90
26583;DHT22;14230;45.382;10.998;2022-09-09T03:31:04;20.80;99.90
26583;DHT22;14230;45.382;10.998;2022-09-09T03:33:38;20.80;99.90
26583;DHT22;14230;45.382;10.998;2022-09-09T03:36:07;20.80;99.90
26583;DHT22;14230;45.382;10.998;2022-09-09T03:38:35;20.80;99.90
26583;DHT22;14230;45.382;10.998;2022-09-09T03:41:04;20.80;99.90
26583;DHT22;14230;45.382;10.998;2022-09-09T03:43:35;20.80;99.90
26583;DHT22;14230;45.382;10.998;2022-09-09T03:46:04;20.80;99.90
26583;DHT22;14230;45.382;10.998;2022-09-09T03:48:31;20.90;99.90
26583;DHT22;14230;45.382;10.998;2022-09-09T03:50:59;20.90;99.90
26583;DHT22;14230;45.382;10.998;2022-09-09T03:53:29;20.90;99.90
26583;DHT22;14230;45.382;10.998;2022-09-09T03:55:57;20.90;99.90
26583;DHT22;14230;45.382;10.998;2022-09-09T03:58:28;20.80;99.90
26583;DHT22;14230;45.382;10.998;2022-09-09T04:01:08;20.80;99.90
26583;DHT22;14230;45.382;10.998;2022-09-09T04:03:37;20.80;99.90
26583;DHT22;14230;45.382;10.998;2022-09-09T04:06:06;20.80;99.90
26583;DHT22;14230;45.382;10.998;2022-09-09T04:08:34;20.80;99.90
26583;DHT22;14230;45.382;10.998;2022-09-09T04:11:04;20.80;99.90
26583;DHT22;14230;45.382;10.998;2022-09-09T04:13:35;20.80;99.90
26583;DHT22;14230;45.382;10.998;2022-09-09T04:16:05;20.80;99.90
26583;DHT22;14230;45.382;10.998;2022-09-09T04:18:35;20.90;99.90
26583;DHT22;14230;45.382;10.998;2022-09-09T04:21:03;20.80;99.90
26583;DHT22;14230;45.382;10.998;2022-09-09T04:23:33;20.90;99.90
26583;DHT22;14230;45.382;10.998;2022-09-09T04:26:02;20.80;99.90
26583;DHT22;14230;45.382;10.998;2022-09-09T04:28:33;20.70;99.90
26583;DHT22;14230;45.382;10.998;2022-09-09T04:31:10;20.70;99.90
26583;DHT22;14230;45.382;10.998;2022-09-09T04:33:40;20.70;99.90
26583;DHT22;14230;45.382;10.998;2022-09-09T04:36:10;20.70;99.90
26583;DHT22;14230;45.382;10.998;2022-09-09T04:38:37;20.70;99.90
26583;DHT22;14230;45.382;10.998;2022-09-09T04:41:05;20.60;99.90
26583;DHT22;14230;45.382;10.998;2022-09-09T04:43:34;20.70;99.90
26583;DHT22;14230;45.382;10.998;2022-09-09T04:46:05;20.70;99.90
26583;DHT22;14230;45.382;10.998;2022-09-09T04:48:33;20.70;99.90
26583;DHT22;14230;45.382;10.998;2022-09-09T04:51:04;20.70;99.90
26583;DHT22;14230;45.382;10.998;2022-09-09T04:53:33;20.70;99.90
26583;DHT22;14230;45.382;10.998;2022-09-09T04:58:39;20.80;99.90
26583;DHT22;14230;45.382;10.998;2022-09-09T05:01:15;20.90;99.90
26583;DHT22;14230;45.382;10.998;2022-09-09T05:03:46;21.00;99.90
26583;DHT22;14230;45.382;10.998;2022-09-09T05:06:19;21.00;99.90
26583;DHT22;14230;45.382;10.998;2022-09-09T05:08:50;21.00;99.90
26583;DHT22;14230;45.382;10.998;2022-09-09T05:11:25;21.10;99.90
26583;DHT22;14230;45.382;10.998;2022-09-09T05:13:59;21.20;99.90
26583;DHT22;14230;45.382;10.998;2022-09-09T05:16:28;21.30;99.90
26583;DHT22;14230;45.382;10.998;2022-09-09T05:18:59;21.40;99.90
26583;DHT22;14230;45.382;10.998;2022-09-09T05:21:35;21.50;99.90
26583;DHT22;14230;45.382;10.998;2022-09-09T05:24:03;21.60;99.90
26583;DHT22;14230;45.382;10.998;2022-09-09T05:26:30;21.70;99.90
26583;DHT22;14230;45.382;10.998;2022-09-09T05:28:59;21.70;99.90
26583;DHT22;14230;45.382;10.998;2022-09-09T05:31:29;21.70;99.90
26583;DHT22;14230;45.382;10.998;2022-09-09T05:34:00;21.80;99.90
26583;DHT22;14230;45.382;10.998;2022-09-09T05:36:28;21.90;99.90
26583;DHT22;14230;45.382;10.998;2022-09-09T05:38:56;22.00;99.90
26583;DHT22;14230;45.382;10.998;2022-09-09T05:41:26;22.00;99.90
26583;DHT22;14230;45.382;10.998;2022-09-09T05:43:57;22.10;99.90
26583;DHT22;14230;45.382;10.998;2022-09-09T05:46:28;22.20;99.90
26583;DHT22;14230;45.382;10.998;2022-09-09T05:48:56;22.30;99.90
26583;DHT22;14230;45.382;10.998;2022-09-09T05:51:28;22.30;99.90
26583;DHT22;14230;45.382;10.998;2022-09-09T05:53:59;22.40;99.90
26583;DHT22;14230;45.382;10.998;2022-09-09T05:56:30;22.40;99.90
26583;DHT22;14230;45.382;10.998;2022-09-09T05:59:00;22.60;99.90
26583;DHT22;14230;45.382;10.998;2022-09-09T06:01:31;22.70;99.90
26583;DHT22;14230;45.382;10.998;2022-09-09T06:04:01;22.80;99.90
26583;DHT22;14230;45.382;10.998;2022-09-09T06:06:32;23.00;99.90
26583;DHT22;14230;45.382;10.998;2022-09-09T06:09:09;23.30;99.90
26583;DHT22;14230;45.382;10.998;2022-09-09T06:11:40;23.60;99.90
26583;DHT22;14230;45.382;10.998;2022-09-09T06:14:09;24.00;99.90
26583;DHT22;14230;45.382;10.998;2022-09-09T06:16:38;24.90;99.90
26583;DHT22;14230;45.382;10.998;2022-09-09T06:19:12;26.10;99.90
26583;DHT22;14230;45.382;10.998;2022-09-09T06:21:40;26.90;99.90
26583;DHT22;14230;45.382;10.998;2022-09-09T06:24:09;27.70;99.90
26583;DHT22;14230;45.382;10.998;2022-09-09T06:26:38;28.70;99.90
26583;DHT22;14230;45.382;10.998;2022-09-09T06:29:11;29.20;99.90
26583;DHT22;14230;45.382;10.998;2022-09-09T06:31:39;29.70;99.90
26583;DHT22;14230;45.382;10.998;2022-09-09T06:34:19;29.90;99.90
26583;DHT22;14230;45.382;10.998;2022-09-09T06:36:50;30.30;99.90
26583;DHT22;14230;45.382;10.998;2022-09-09T06:39:24;31.10;99.90
26583;DHT22;14230;45.382;10.998;2022-09-09T06:41:52;31.70;99.90
26583;DHT22;14230;45.382;10.998;2022-09-09T06:44:39;32.20;99.90
26583;DHT22;14230;45.382;10.998;2022-09-09T06:47:11;31.60;99.90
26583;DHT22;14230;45.382;10.998;2022-09-09T06:49:40;31.30;99.90
26583;DHT22;14230;45.382;10.998;2022-09-09T06:52:14;30.70;99.90
26583;DHT22;14230;45.382;10.998;2022-09-09T06:54:42;30.30;99.90
26583;DHT22;14230;45.382;10.998;2022-09-09T06:57:10;30.80;99.90
26583;DHT22;14230;45.382;10.998;2022-09-09T06:59:57;31.50;99.90
26583;DHT22;14230;45.382;10.998;2022-09-09T07:02:24;31.90;99.90
26583;DHT22;14230;45.382;10.998;2022-09-09T07:04:53;31.50;99.90
26583;DHT22;14230;45.382;10.998;2022-09-09T07:07:20;31.00;99.90
26583;DHT22;14230;45.382;10.998;2022-09-09T07:09:48;30.90;99.90
26583;DHT22;14230;45.382;10.998;2022-09-09T07:12:16;30.90;99.90
26583;DHT22;14230;45.382;10.998;2022-09-09T07:14:51;31.30;99.90
26583;DHT22;14230;45.382;10.998;2022-09-09T07:17:18;31.60;99.90
26583;DHT22;14230;45.382;10.998;2022-09-09T07:19:46;31.40;99.90
26583;DHT22;14230;45.382;10.998;2022-09-09T07:22:15;31.30;99.90
26583;DHT22;14230;45.382;10.998;2022-09-09T07:24:43;30.90;99.90
26583;DHT22;14230;45.382;10.998;2022-09-09T07:27:12;31.00;99.90
26583;DHT22;14230;45.382;10.998;2022-09-09T07:29:41;31.60;99.90
26583;DHT22;14230;45.382;10.998;2022-09-09T07:32:08;31.90;99.90
26583;DHT22;14230;45.382;10.998;2022-09-09T07:34:37;32.40;99.90
26583;DHT22;14230;45.382;10.998;2022-09-09T07:37:05;32.50;99.90
26583;DHT22;14230;45.382;10.998;2022-09-09T07:39:34;33.30;99.90
26583;DHT22;14230;45.382;10.998;2022-09-09T07:42:02;33.50;99.90
26583;DHT22;14230;45.382;10.998;2022-09-09T07:44:30;34.10;99.90
26583;DHT22;14230;45.382;10.998;2022-09-09T07:47:06;34.40;99.90
26583;DHT22;14230;45.382;10.998;2022-09-09T07:49:41;34.20;99.90
26583;DHT22;14230;45.382;10.998;2022-09-09T07:52:09;32.90;99.90
26583;DHT22;14230;45.382;10.998;2022-09-09T07:54:42;32.50;99.90
26583;DHT22;14230;45.382;10.998;2022-09-09T07:57:10;32.80;99.90
26583;DHT22;14230;45.382;10.998;2022-09-09T07:59:39;32.80;99.90
26583;DHT22;14230;45.382;10.998;2022-09-09T08:02:08;32.80;99.90
26583;DHT22;14230;45.382;10.998;2022-09-09T08:04:37;32.30;99.90
26583;DHT22;14230;45.382;10.998;2022-09-09T08:07:05;31.90;99.90
26583;DHT22;14230;45.382;10.998;2022-09-09T08:09:39;32.10;99.90
26583;DHT22;14230;45.382;10.998;2022-09-09T08:12:16;32.90;99.90
26583;DHT22;14230;45.382;10.998;2022-09-09T08:14:44;33.90;99.90
26583;DHT22;14230;45.382;10.998;2022-09-09T08:17:11;34.30;99.90
26583;DHT22;14230;45.382;10.998;2022-09-09T08:19:39;34.40;99.90
26583;DHT22;14230;45.382;10.998;2022-09-09T08:22:14;34.00;99.90
26583;DHT22;14230;45.382;10.998;2022-09-09T08:24:41;34.30;99.90
26583;DHT22;14230;45.382;10.998;2022-09-09T08:27:09;34.60;99.90
26583;DHT22;14230;45.382;10.998;2022-09-09T08:29:38;34.60;99.90
26583;DHT22;14230;45.382;10.998;2022-09-09T08:32:06;33.70;99.90
26583;DHT22;14230;45.382;10.998;2022-09-09T08:34:34;33.20;99.90
26583;DHT22;14230;45.382;10.998;2022-09-09T08:37:11;33.00;99.90
26583;DHT22;14230;45.382;10.998;2022-09-09T08:39:41;32.90;99.90
26583;DHT22;14230;45.382;10.998;2022-09-09T08:42:38;33.50;99.90
26583;DHT22;14230;45.382;10.998;2022-09-09T08:45:31;33.10;99.90
26583;DHT22;14230;45.382;10.998;2022-09-09T08:48:26;33.90;99.90
26583;DHT22;14230;45.382;10.998;2022-09-09T08:50:59;34.00;99.90
26583;DHT22;14230;45.382;10.998;2022-09-09T08:53:41;35.10;99.90
26583;DHT22;14230;45.382;10.998;2022-09-09T08:56:14;35.30;99.90
26583;DHT22;14230;45.382;10.998;2022-09-09T08:58:50;35.30;99.90
26583;DHT22;14230;45.382;10.998;2022-09-09T09:01:41;35.50;99.90
26583;DHT22;14230;45.382;10.998;2022-09-09T09:19:01;34.90;99.90
26583;DHT22;14230;45.382;10.998;2022-09-09T09:27:18;34.20;99.90
26583;DHT22;14230;45.382;10.998;2022-09-09T09:29:54;34.20;99.90
26583;DHT22;14230;45.382;10.998;2022-09-09T09:35:17;35.50;99.90
26583;DHT22;14230;45.382;10.998;2022-09-09T09:37:44;35.60;99.90
26583;DHT22;14230;45.382;10.998;2022-09-09T09:40:34;36.00;99.90
26583;DHT22;14230;45.382;10.998;2022-09-09T09:43:03;36.70;99.90
26583;DHT22;14230;45.382;10.998;2022-09-09T09:45:44;36.40;99.90
26583;DHT22;14230;45.382;10.998;2022-09-09T09:48:34;35.60;99.90
26583;DHT22;14230;45.382;10.998;2022-09-09T09:51:14;34.10;99.90
26583;DHT22;14230;45.382;10.998;2022-09-09T09:53:43;33.30;99.90
26583;DHT22;14230;45.382;10.998;2022-09-09T09:56:14;33.20;99.90
26583;DHT22;14230;45.382;10.998;2022-09-09T10:01:27;33.50;99.90
26583;DHT22;14230;45.382;10.998;2022-09-09T10:08:58;29.40;99.90
26583;DHT22;14230;45.382;10.998;2022-09-09T10:11:48;27.80;99.90
26583;DHT22;14230;45.382;10.998;2022-09-09T10:14:39;26.40;99.90
26583;DHT22;14230;45.382;10.998;2022-09-09T10:29:20;21.40;99.90
26583;DHT22;14230;45.382;10.998;2022-09-09T10:43:54;21.30;99.90
26583;DHT22;14230;45.382;10.998;2022-09-09T10:54:25;21.20;99.90
26583;DHT22;14230;45.382;10.998;2022-09-09T10:57:09;21.00;99.90
26583;DHT22;14230;45.382;10.998;2022-09-09T10:59:42;21.00;99.90
26583;DHT22;14230;45.382;10.998;2022-09-09T11:02:13;21.00;99.90
26583;DHT22;14230;45.382;10.998;2022-09-09T11:05:18;21.10;99.90
26583;DHT22;14230;45.382;10.998;2022-09-09T11:13:56;21.70;99.90
26583;DHT22;14230;45.382;10.998;2022-09-09T11:16:44;21.90;99.90
26583;DHT22;14230;45.382;10.998;2022-09-09T11:21:57;22.00;99.90
26583;DHT22;14230;45.382;10.998;2022-09-09T11:24:38;22.20;99.90
26583;DHT22;14230;45.382;10.998;2022-09-09T11:27:12;22.30;99.90
26583;DHT22;14230;45.382;10.998;2022-09-09T11:30:04;22.50;99.90
26583;DHT22;14230;45.382;10.998;2022-09-09T11:35:44;23.00;99.90
26583;DHT22;14230;45.382;10.998;2022-09-09T11:38:15;23.40;99.90
26583;DHT22;14230;45.382;10.998;2022-09-09T11:40:45;24.00;99.90
26583;DHT22;14230;45.382;10.998;2022-09-09T11:43:14;24.50;99.90
26583;DHT22;14230;45.382;10.998;2022-09-09T11:45:43;24.50;99.90
26583;DHT22;14230;45.382;10.998;2022-09-09T11:48:26;24.80;99.90
26583;DHT22;14230;45.382;10.998;2022-09-09T11:50:59;25.00;99.90
26583;DHT22;14230;45.382;10.998;2022-09-09T11:53:27;25.30;99.90
26583;DHT22;14230;45.382;10.998;2022-09-09T11:56:09;25.20;99.90
26583;DHT22;14230;45.382;10.998;2022-09-09T11:58:53;25.20;99.90
26583;DHT22;14230;45.382;10.998;2022-09-09T12:01:41;25.10;99.90
26583;DHT22;14230;45.382;10.998;2022-09-09T12:04:28;25.30;99.90
26583;DHT22;14230;45.382;10.998;2022-09-09T12:07:27;25.50;99.90
26583;DHT22;14230;45.382;10.998;2022-09-09T12:09:58;25.80;99.90
26583;DHT22;14230;45.382;10.998;2022-09-09T12:12:37;26.00;99.90
26583;DHT22;14230;45.382;10.998;2022-09-09T12:17:51;26.00;99.90
26583;DHT22;14230;45.382;10.998;2022-09-09T12:23:13;25.90;99.90
26583;DHT22;14230;45.382;10.998;2022-09-09T12:33:40;26.20;99.90
26583;DHT22;14230;45.382;10.998;2022-09-09T12:36:16;26.30;99.90
26583;DHT22;14230;45.382;10.998;2022-09-09T12:38:46;26.30;99.90
26583;DHT22;14230;45.382;10.998;2022-09-09T12:41:26;26.40;99.90
26583;DHT22;14230;45.382;10.998;2022-09-09T12:44:08;26.50;99.90
26583;DHT22;14230;45.382;10.998;2022-09-09T12:46:42;26.60;99.90
26583;DHT22;14230;45.382;10.998;2022-09-09T12:49:30;26.60;99.90
26583;DHT22;14230;45.382;10.998;2022-09-09T12:52:54;26.60;99.90
26583;DHT22;14230;45.382;10.998;2022-09-09T12:54:59;26.80;99.90
26583;DHT22;14230;45.382;10.998;2022-09-09T12:57:36;26.90;99.90
26583;DHT22;14230;45.382;10.998;2022-09-09T13:00:17;27.00;99.90
26583;DHT22;14230;45.382;10.998;2022-09-09T13:02:48;26.90;99.90
26583;DHT22;14230;45.382;10.998;2022-09-09T13:05:25;27.00;99.90
26583;DHT22;14230;45.382;10.998;2022-09-09T13:08:04;27.10;99.90
26583;DHT22;14230;45.382;10.998;2022-09-09T13:10:35;27.20;99.90
26583;DHT22;14230;45.382;10.998;2022-09-09T13:13:28;27.30;99.90
26583;DHT22;14230;45.382;10.998;2022-09-09T13:15:59;27.40;99.90
26583;DHT22;14230;45.382;10.998;2022-09-09T13:18:36;27.50;99.90
26583;DHT22;14230;45.382;10.998;2022-09-09T13:21:05;27.50;99.90
26583;DHT22;14230;45.382;10.998;2022-09-09T13:23:35;27.60;99.90
26583;DHT22;14230;45.382;10.998;2022-09-09T13:26:21;27.60;99.90
26583;DHT22;14230;45.382;10.998;2022-09-09T13:28:50;27.70;99.90
26583;DHT22;14230;45.382;10.998;2022-09-09T13:33:49;27.60;99.90
26583;DHT22;14230;45.382;10.998;2022-09-09T13:36:31;27.70;99.90
26583;DHT22;14230;45.382;10.998;2022-09-09T13:39:00;27.70;99.90
26583;DHT22;14230;45.382;10.998;2022-09-09T13:41:45;27.80;99.90
26583;DHT22;14230;45.382;10.998;2022-09-09T13:44:39;27.80;99.90
26583;DHT22;14230;45.382;10.998;2022-09-09T13:49:37;27.90;99.90
26583;DHT22;14230;45.382;10.998;2022-09-09T13:52:09;27.80;99.90
26583;DHT22;14230;45.382;10.998;2022-09-09T13:54:39;27.90;99.90
26583;DHT22;14230;45.382;10.998;2022-09-09T13:59:46;27.80;99.90
26583;DHT22;14230;45.382;10.998;2022-09-09T14:02:31;27.80;99.90
26583;DHT22;14230;45.382;10.998;2022-09-09T14:04:58;27.80;99.90
26583;DHT22;14230;45.382;10.998;2022-09-09T14:07:26;27.80;99.90
26583;DHT22;14230;45.382;10.998;2022-09-09T14:09:54;27.80;99.90
26583;DHT22;14230;45.382;10.998;2022-09-09T14:12:21;27.60;99.90
26583;DHT22;14230;45.382;10.998;2022-09-09T14:14:49;27.20;99.90
26583;DHT22;14230;45.382;10.998;2022-09-09T14:17:16;26.90;99.90
26583;DHT22;14230;45.382;10.998;2022-09-09T14:19:44;26.60;99.90
26583;DHT22;14230;45.382;10.998;2022-09-09T14:22:13;26.60;99.90
26583;DHT22;14230;45.382;10.998;2022-09-09T14:24:40;26.60;99.90
26583;DHT22;14230;45.382;10.998;2022-09-09T14:27:08;26.40;99.90
26583;DHT22;14230;45.382;10.998;2022-09-09T14:29:35;26.40;99.90
26583;DHT22;14230;45.382;10.998;2022-09-09T14:32:03;26.30;99.90
26583;DHT22;14230;45.382;10.998;2022-09-09T14:34:33;26.20;99.90
26583;DHT22;14230;45.382;10.998;2022-09-09T14:37:01;26.20;99.90
26583;DHT22;14230;45.382;10.998;2022-09-09T14:39:29;26.20;99.90
26583;DHT22;14230;45.382;10.998;2022-09-09T14:41:56;26.10;99.90
26583;DHT22;14230;45.382;10.998;2022-09-09T14:44:23;26.20;99.90
26583;DHT22;14230;45.382;10.998;2022-09-09T14:46:51;26.20;99.90
26583;DHT22;14230;45.382;10.998;2022-09-09T14:49:18;26.30;99.90
26583;DHT22;14230;45.382;10.998;2022-09-09T14:51:46;26.40;99.90
26583;DHT22;14230;45.382;10.998;2022-09-09T14:54:13;26.40;99.90
26583;DHT22;14230;45.382;10.998;2022-09-09T14:56:41;26.60;99.90
26583;DHT22;14230;45.382;10.998;2022-09-09T14:59:09;26.60;99.90
26583;DHT22;14230;45.382;10.998;2022-09-09T15:01:36;26.60;99.90
26583;DHT22;14230;45.382;10.998;2022-09-09T15:04:05;26.60;99.90
26583;DHT22;14230;45.382;10.998;2022-09-09T15:06:35;26.60;99.90
26583;DHT22;14230;45.382;10.998;2022-09-09T15:09:05;26.60;99.90
26583;DHT22;14230;45.382;10.998;2022-09-09T15:11:37;26.40;99.90
26583;DHT22;14230;45.382;10.998;2022-09-09T15:14:06;26.40;99.90
26583;DHT22;14230;45.382;10.998;2022-09-09T15:16:34;26.40;99.90
26583;DHT22;14230;45.382;10.998;2022-09-09T15:19:03;26.30;99.90
26583;DHT22;14230;45.382;10.998;2022-09-09T15:21:33;26.10;99.90
26583;DHT22;14230;45.382;10.998;2022-09-09T15:24:00;26.20;99.90
26583;DHT22;14230;45.382;10.998;2022-09-09T15:26:28;26.30;99.90
26583;DHT22;14230;45.382;10.998;2022-09-09T15:28:57;26.20;99.90
26583;DHT22;14230;45.382;10.998;2022-09-09T15:31:30;26.10;99.90
26583;DHT22;14230;45.382;10.998;2022-09-09T15:34:00;26.10;99.90
26583;DHT22;14230;45.382;10.998;2022-09-09T15:36:34;26.10;99.90
26583;DHT22;14230;45.382;10.998;2022-09-09T15:39:04;26.00;99.90
26583;DHT22;14230;45.382;10.998;2022-09-09T15:41:31;25.90;99.90
26583;DHT22;14230;45.382;10.998;2022-09-09T15:43:59;25.90;99.90
26583;DHT22;14230;45.382;10.998;2022-09-09T15:46:35;25.90;99.90
26583;DHT22;14230;45.382;10.998;2022-09-09T15:49:11;25.80;99.90
26583;DHT22;14230;45.382;10.998;2022-09-09T15:51:42;25.80;99.90
26583;DHT22;14230;45.382;10.998;2022-09-09T15:54:13;25.70;99.90
26583;DHT22;14230;45.382;10.998;2022-09-09T15:56:41;25.60;99.90
26583;DHT22;14230;45.382;10.998;2022-09-09T15:59:09;25.50;99.90
26583;DHT22;14230;45.382;10.998;2022-09-09T16:01:37;25.50;99.90
26583;DHT22;14230;45.382;10.998;2022-09-09T16:04:06;25.50;99.90
26583;DHT22;14230;45.382;10.998;2022-09-09T16:06:34;25.50;99.90
26583;DHT22;14230;45.382;10.998;2022-09-09T16:09:03;25.50;99.90
26583;DHT22;14230;45.382;10.998;2022-09-09T16:11:34;25.50;99.90
26583;DHT22;14230;45.382;10.998;2022-09-09T16:14:02;25.60;99.90
26583;DHT22;14230;45.382;10.998;2022-09-09T16:16:31;25.50;99.90
26583;DHT22;14230;45.382;10.998;2022-09-09T16:19:03;25.50;99.90
26583;DHT22;14230;45.382;10.998;2022-09-09T16:21:34;25.40;99.90
26583;DHT22;14230;45.382;10.998;2022-09-09T16:24:03;25.30;99.90
26583;DHT22;14230;45.382;10.998;2022-09-09T16:26:33;25.40;99.90
26583;DHT22;14230;45.382;10.998;2022-09-09T16:29:01;25.30;99.90
26583;DHT22;14230;45.382;10.998;2022-09-09T16:31:30;25.30;99.90
26583;DHT22;14230;45.382;10.998;2022-09-09T16:33:59;25.20;99.90
26583;DHT22;14230;45.382;10.998;2022-09-09T16:36:29;25.20;99.90
26583;DHT22;14230;45.382;10.998;2022-09-09T16:39:06;25.10;99.90
26583;DHT22;14230;45.382;10.998;2022-09-09T16:41:35;25.10;99.90
26583;DHT22;14230;45.382;10.998;2022-09-09T16:44:05;25.00;99.90
26583;DHT22;14230;45.382;10.998;2022-09-09T16:46:38;24.90;99.90
26583;DHT22;14230;45.382;10.998;2022-09-09T16:49:10;24.90;99.90
26583;DHT22;14230;45.382;10.998;2022-09-09T16:51:45;24.80;99.90
26583;DHT22;14230;45.382;10.998;2022-09-09T16:54:16;24.80;99.90
26583;DHT22;14230;45.382;10.998;2022-09-09T16:56:46;24.70;99.90
26583;DHT22;14230;45.382;10.998;2022-09-09T16:59:18;24.60;99.90
26583;DHT22;14230;45.382;10.998;2022-09-09T17:01:49;24.60;99.90
26583;DHT22;14230;45.382;10.998;2022-09-09T17:04:20;24.50;99.90
26583;DHT22;14230;45.382;10.998;2022-09-09T17:06:49;24.50;99.90
26583;DHT22;14230;45.382;10.998;2022-09-09T17:09:18;24.40;99.90
26583;DHT22;14230;45.382;10.998;2022-09-09T17:11:47;24.30;99.90
26583;DHT22;14230;45.382;10.998;2022-09-09T17:14:17;24.20;99.90
26583;DHT22;14230;45.382;10.998;2022-09-09T17:16:45;24.20;99.90
26583;DHT22;14230;45.382;10.998;2022-09-09T17:19:14;24.10;99.90
26583;DHT22;14230;45.382;10.998;2022-09-09T17:21:42;24.00;99.90
26583;DHT22;14230;45.382;10.998;2022-09-09T17:24:30;24.00;99.90
26583;DHT22;14230;45.382;10.998;2022-09-09T17:26:57;23.90;99.90
26583;DHT22;14230;45.382;10.998;2022-09-09T17:29:25;23.90;99.90
26583;DHT22;14230;45.382;10.998;2022-09-09T17:31:53;23.80;99.90
26583;DHT22;14230;45.382;10.998;2022-09-09T17:34:22;23.70;99.90
26583;DHT22;14230;45.382;10.998;2022-09-09T17:36:50;23.70;99.90
26583;DHT22;14230;45.382;10.998;2022-09-09T17:39:17;23.60;99.90
26583;DHT22;14230;45.382;10.998;2022-09-09T17:41:45;23.60;99.90
26583;DHT22;14230;45.382;10.998;2022-09-09T17:44:13;23.50;99.90
26583;DHT22;14230;45.382;10.998;2022-09-09T17:46:42;23.40;99.90
26583;DHT22;14230;45.382;10.998;2022-09-09T17:49:12;23.40;99.90
26583;DHT22;14230;45.382;10.998;2022-09-09T17:51:41;23.30;99.90
26583;DHT22;14230;45.382;10.998;2022-09-09T17:54:14;23.20;99.90
26583;DHT22;14230;45.382;10.998;2022-09-09T17:56:42;23.20;99.90
26583;DHT22;14230;45.382;10.998;2022-09-09T17:59:12;23.20;99.90
26583;DHT22;14230;45.382;10.998;2022-09-09T18:01:43;23.20;99.90
26583;DHT22;14230;45.382;10.998;2022-09-09T18:04:13;23.10;99.90
26583;DHT22;14230;45.382;10.998;2022-09-09T18:06:46;23.10;99.90
26583;DHT22;14230;45.382;10.998;2022-09-09T18:09:21;23.10;99.90
26583;DHT22;14230;45.382;10.998;2022-09-09T18:11:52;23.10;99.90
26583;DHT22;14230;45.382;10.998;2022-09-09T18:14:23;23.00;99.90
26583;DHT22;14230;45.382;10.998;2022-09-09T18:16:52;23.00;99.90
26583;DHT22;14230;45.382;10.998;2022-09-09T18:19:23;23.00;99.90
26583;DHT22;14230;45.382;10.998;2022-09-09T18:21:52;23.00;99.90
26583;DHT22;14230;45.382;10.998;2022-09-09T18:24:22;22.90;99.90
26583;DHT22;14230;45.382;10.998;2022-09-09T18:26:50;22.90;99.90